Central Village, Connecticut
Current Conditions -  °F | °C
As of 10:52 PM on Monday 22 Dec 2014 (Local Time) from KIJD Reporting Station
Overcast Overcast  
Wind Chill: 39°   Ceiling: 3500
Heat Index: 42°   Visibility: 10mi
Dew Point: 37°   Wind: 5mph
Humidity: 82%   Direction: 60°ENE
Pressure: 30.26"   Gusts: NA
Location:  41.72°N, 71.91°W
Report Text: KIJD 230352Z AUTO 06004KT 10SM OVC035 06/03 A3026 RMK AO2 SLP248 T00560028
Loading
Personal Weather Stations






























Interactive Weather Map New forecast layout! Learn more

10-Day Weather Forecast

Advertisements
Track Severe Weather on mobile